Strona główna
METAR-TAF:

METAR-TAF

Lotnisko :

St. Clair County International Airport

Port Huron, Michigan, Stany Zjednoczone

Szerokość geograficzna: 42-55N, Długość geograficzna: 082-32W, wysokość: 198 m

Aktualna obserwacja pogody

Raport powstał 13 minut temu, godzina 19:15 UTC
Wiatr 8 kt od południowo-południowy zachód
Temperatura 31°C
Wilgotność 52%
Ciśnienie 1012 hPa
Widzialność: 16.1 km
bezchmurnie

METAR: KPHN 181915Z AUTO 20008KT 10SM CLR 31/20 A2988 RMK AO2

czas: 15:28 (19:28 UTC)


TAF: brakujący

Obserwacja i prognoza pogody dla ponad 4000 lotnisk (raport METAR i TAF).

Dostępne stacje oznaczono żółtymi i czerwonymi punktami na mapie.

Najedź kursorem aby zobaczyć nazwę stacji.

Kliknij aby zobaczyć obserwacje i prognozy pogody.

Aby zmienić mapę: kliknij na zielony przycisk z czarnym krzyżykiem, aby powiększyć; na zielony przycisk z myślnikiem, aby pomniejszyć; na zielone strzałki, aby przejść do map sąsiednich.


METAR-TAF: